sensor_id;sensor_type;location;lat;lon;timestamp;pressure;altitude;pressure_sealevel;temperature;humidity
76404;BME280;65232;48.358;2.122;2023-05-07T00:00:22;100792.59;;;15.05;86.65
76404;BME280;65232;48.358;2.122;2023-05-07T00:00:48;100793.13;;;15.09;86.59
76404;BME280;65232;48.358;2.122;2023-05-07T00:01:13;100802.75;;;15.11;86.54
76404;BME280;65232;48.358;2.122;2023-05-07T00:01:38;100794.13;;;15.08;86.91
76404;BME280;65232;48.358;2.122;2023-05-07T00:02:04;100790.75;;;15.06;87.81
76404;BME280;65232;48.358;2.122;2023-05-07T00:02:29;100788.59;;;15.09;87.84
76404;BME280;65232;48.358;2.122;2023-05-07T00:02:55;100794.44;;;15.05;87.92
76404;BME280;65232;48.358;2.122;2023-05-07T00:03:21;100787.34;;;15.04;88.14
76404;BME280;65232;48.358;2.122;2023-05-07T00:03:46;100791.75;;;15.05;88.09
76404;BME280;65232;48.358;2.122;2023-05-07T00:04:12;100789.91;;;15.05;88.04
76404;BME280;65232;48.358;2.122;2023-05-07T00:04:38;100785.19;;;15.07;88.26
76404;BME280;65232;48.358;2.122;2023-05-07T00:05:04;100779.66;;;15.09;87.97
76404;BME280;65232;48.358;2.122;2023-05-07T00:05:29;100779.34;;;15.12;88.22
76404;BME280;65232;48.358;2.122;2023-05-07T00:05:55;100787.28;;;15.13;87.91
76404;BME280;65232;48.358;2.122;2023-05-07T00:06:21;100776.31;;;15.15;87.71
76404;BME280;65232;48.358;2.122;2023-05-07T00:06:46;100777.31;;;15.14;87.47
76404;BME280;65232;48.358;2.122;2023-05-07T00:07:11;100771.25;;;15.12;87.30
76404;BME280;65232;48.358;2.122;2023-05-07T00:07:37;100772.97;;;15.13;87.25
76404;BME280;65232;48.358;2.122;2023-05-07T00:08:03;100778.69;;;15.18;87.23
76404;BME280;65232;48.358;2.122;2023-05-07T00:08:28;100777.16;;;15.15;87.41
76404;BME280;65232;48.358;2.122;2023-05-07T00:08:55;100775.47;;;15.14;88.24
76404;BME280;65232;48.358;2.122;2023-05-07T00:09:21;100771.91;;;15.14;88.46
76404;BME280;65232;48.358;2.122;2023-05-07T00:09:46;100769.41;;;15.12;89.01
76404;BME280;65232;48.358;2.122;2023-05-07T00:10:12;100770.25;;;15.13;88.62
76404;BME280;65232;48.358;2.122;2023-05-07T00:10:37;100767.19;;;15.08;88.46
76404;BME280;65232;48.358;2.122;2023-05-07T00:11:03;100769.72;;;15.09;88.41
76404;BME280;65232;48.358;2.122;2023-05-07T00:11:28;100773.25;;;15.10;88.42
76404;BME280;65232;48.358;2.122;2023-05-07T00:11:54;100769.03;;;15.07;88.54
76404;BME280;65232;48.358;2.122;2023-05-07T00:12:19;100764.94;;;15.03;88.75
76404;BME280;65232;48.358;2.122;2023-05-07T00:12:45;100765.34;;;15.08;88.60
76404;BME280;65232;48.358;2.122;2023-05-07T00:13:10;100764.34;;;15.09;88.78
76404;BME280;65232;48.358;2.122;2023-05-07T00:13:36;100766.19;;;15.09;88.81
76404;BME280;65232;48.358;2.122;2023-05-07T00:14:01;100758.09;;;15.09;89.32
76404;BME280;65232;48.358;2.122;2023-05-07T00:14:27;100764.19;;;15.11;89.04
76404;BME280;65232;48.358;2.122;2023-05-07T00:14:52;100754.53;;;15.08;88.85
76404;BME280;65232;48.358;2.122;2023-05-07T00:15:18;100758.78;;;15.11;89.07
76404;BME280;65232;48.358;2.122;2023-05-07T00:15:43;100756.94;;;15.11;89.26
76404;BME280;65232;48.358;2.122;2023-05-07T00:16:08;100751.38;;;15.13;88.92
76404;BME280;65232;48.358;2.122;2023-05-07T00:16:34;100754.53;;;15.08;89.00
76404;BME280;65232;48.358;2.122;2023-05-07T00:16:59;100753.53;;;15.09;89.08
76404;BME280;65232;48.358;2.122;2023-05-07T00:17:25;100755.47;;;14.99;88.47
76404;BME280;65232;48.358;2.122;2023-05-07T00:17:50;100754.00;;;15.05;88.49
76404;BME280;65232;48.358;2.122;2023-05-07T00:18:16;100756.25;;;15.09;89.01
76404;BME280;65232;48.358;2.122;2023-05-07T00:18:41;100756.09;;;15.11;89.24
76404;BME280;65232;48.358;2.122;2023-05-07T00:19:07;100756.09;;;15.11;89.48
76404;BME280;65232;48.358;2.122;2023-05-07T00:19:32;100751.53;;;15.11;89.20
76404;BME280;65232;48.358;2.122;2023-05-07T00:19:58;100750.31;;;15.06;89.36
76404;BME280;65232;48.358;2.122;2023-05-07T00:20:23;100753.53;;;15.09;88.72
76404;BME280;65232;48.358;2.122;2023-05-07T00:20:48;100752.00;;;15.07;88.50
76404;BME280;65232;48.358;2.122;2023-05-07T00:21:14;100748.00;;;15.11;88.36
76404;BME280;65232;48.358;2.122;2023-05-07T00:21:39;100754.69;;;15.07;88.06
76404;BME280;65232;48.358;2.122;2023-05-07T00:22:06;100742.91;;;15.08;87.90
76404;BME280;65232;48.358;2.122;2023-05-07T00:22:32;100743.06;;;15.06;87.50
76404;BME280;65232;48.358;2.122;2023-05-07T00:22:57;100756.41;;;15.08;87.82
76404;BME280;65232;48.358;2.122;2023-05-07T00:23:23;100742.91;;;15.08;87.78
76404;BME280;65232;48.358;2.122;2023-05-07T00:23:48;100747.63;;;15.06;88.26
76404;BME280;65232;48.358;2.122;2023-05-07T00:24:14;100747.63;;;15.06;88.75
76404;BME280;65232;48.358;2.122;2023-05-07T00:24:39;100747.78;;;15.04;89.19
76404;BME280;65232;48.358;2.122;2023-05-07T00:25:05;100744.22;;;15.04;89.17
76404;BME280;65232;48.358;2.122;2023-05-07T00:25:30;100739.84;;;15.03;89.57
76404;BME280;65232;48.358;2.122;2023-05-07T00:25:56;100740.69;;;15.03;89.59
76404;BME280;65232;48.358;2.122;2023-05-07T00:26:22;100737.44;;;15.00;89.74
76404;BME280;65232;48.358;2.122;2023-05-07T00:26:49;100736.28;;;15.02;89.94
76404;BME280;65232;48.358;2.122;2023-05-07T00:27:15;100738.31;;;15.00;89.90
76404;BME280;65232;48.358;2.122;2023-05-07T00:27:41;100734.94;;;14.98;90.41
76404;BME280;65232;48.358;2.122;2023-05-07T00:28:06;100736.09;;;14.96;90.41
76404;BME280;65232;48.358;2.122;2023-05-07T00:28:32;100736.94;;;14.96;90.75
76404;BME280;65232;48.358;2.122;2023-05-07T00:28:57;100736.28;;;15.02;90.46
76404;BME280;65232;48.358;2.122;2023-05-07T00:29:22;100733.59;;;15.02;90.50
76404;BME280;65232;48.358;2.122;2023-05-07T00:29:48;100731.91;;;15.01;90.83
76404;BME280;65232;48.358;2.122;2023-05-07T00:30:14;100732.28;;;15.06;90.29
76404;BME280;65232;48.358;2.122;2023-05-07T00:30:39;100733.84;;;15.09;90.13
76404;BME280;65232;48.358;2.122;2023-05-07T00:31:05;100737.06;;;15.12;89.54
76404;BME280;65232;48.358;2.122;2023-05-07T00:31:30;100735.22;;;15.13;89.24
76404;BME280;65232;48.358;2.122;2023-05-07T00:31:56;100742.28;;;15.14;89.23
76404;BME280;65232;48.358;2.122;2023-05-07T00:32:21;100737.22;;;15.11;89.40
76404;BME280;65232;48.358;2.122;2023-05-07T00:32:47;100732.53;;;15.13;89.83
76404;BME280;65232;48.358;2.122;2023-05-07T00:33:14;100728.78;;;15.14;89.71
76404;BME280;65232;48.358;2.122;2023-05-07T00:33:39;100733.38;;;15.13;89.83
76404;BME280;65232;48.358;2.122;2023-05-07T00:34:05;100732.53;;;15.13;89.72
76404;BME280;65232;48.358;2.122;2023-05-07T00:34:31;100731.81;;;15.11;89.69
76404;BME280;65232;48.358;2.122;2023-05-07T00:34:56;100731.28;;;15.07;89.76
76404;BME280;65232;48.358;2.122;2023-05-07T00:35:22;100734.69;;;15.09;90.01
76404;BME280;65232;48.358;2.122;2023-05-07T00:35:48;100735.69;;;15.08;89.68
76404;BME280;65232;48.358;2.122;2023-05-07T00:36:13;100739.06;;;15.10;89.89
76404;BME280;65232;48.358;2.122;2023-05-07T00:36:39;100729.44;;;15.08;90.15
76404;BME280;65232;48.358;2.122;2023-05-07T00:37:04;100731.44;;;15.06;89.79
76404;BME280;65232;48.358;2.122;2023-05-07T00:37:32;100728.59;;;15.07;89.74
76404;BME280;65232;48.358;2.122;2023-05-07T00:37:58;100726.75;;;15.08;90.10
76404;BME280;65232;48.358;2.122;2023-05-07T00:38:23;100727.06;;;15.05;89.76
76404;BME280;65232;48.358;2.122;2023-05-07T00:38:48;100727.91;;;15.05;89.65
76404;BME280;65232;48.358;2.122;2023-05-07T00:39:14;100724.50;;;15.03;90.17
76404;BME280;65232;48.358;2.122;2023-05-07T00:39:40;100728.38;;;15.01;89.73
76404;BME280;65232;48.358;2.122;2023-05-07T00:40:06;100727.38;;;15.02;90.05
76404;BME280;65232;48.358;2.122;2023-05-07T00:40:32;100724.50;;;15.03;89.99
76404;BME280;65232;48.358;2.122;2023-05-07T00:40:58;100730.06;;;15.02;89.56
76404;BME280;65232;48.358;2.122;2023-05-07T00:41:23;100728.91;;;15.04;89.23
76404;BME280;65232;48.358;2.122;2023-05-07T00:41:49;100720.19;;;15.10;89.47
76404;BME280;65232;48.358;2.122;2023-05-07T00:42:16;100728.59;;;15.07;89.52
76404;BME280;65232;48.358;2.122;2023-05-07T00:42:42;100724.06;;;15.08;89.33
76404;BME280;65232;48.358;2.122;2023-05-07T00:43:12;100729.13;;;15.11;89.14
76404;BME280;65232;48.358;2.122;2023-05-07T00:43:37;100731.81;;;15.11;88.97
76404;BME280;65232;48.358;2.122;2023-05-07T00:44:03;100712.63;;;15.14;88.39
76404;BME280;65232;48.358;2.122;2023-05-07T00:44:29;100716.50;;;15.11;88.69
76404;BME280;65232;48.358;2.122;2023-05-07T00:44:54;100725.44;;;15.12;88.60
76404;BME280;65232;48.358;2.122;2023-05-07T00:45:20;100718.78;;;14.98;88.30
76404;BME280;65232;48.358;2.122;2023-05-07T00:45:46;100716.53;;;14.94;88.18
76404;BME280;65232;48.358;2.122;2023-05-07T00:46:12;100714.16;;;14.91;88.37
76404;BME280;65232;48.358;2.122;2023-05-07T00:46:38;100715.00;;;14.91;89.06
76404;BME280;65232;48.358;2.122;2023-05-07T00:47:04;100717.16;;;14.88;89.53
76404;BME280;65232;48.358;2.122;2023-05-07T00:47:30;100712.59;;;14.88;89.29
76404;BME280;65232;48.358;2.122;2023-05-07T00:47:58;100727.47;;;14.92;89.31
76404;BME280;65232;48.358;2.122;2023-05-07T00:48:24;100722.09;;;14.92;88.95
76404;BME280;65232;48.358;2.122;2023-05-07T00:48:51;100714.84;;;14.93;89.10
76404;BME280;65232;48.358;2.122;2023-05-07T00:49:16;100718.84;;;14.89;89.22
76404;BME280;65232;48.358;2.122;2023-05-07T00:49:44;100720.94;;;14.95;89.21
76404;BME280;65232;48.358;2.122;2023-05-07T00:50:10;100719.28;;;15.02;88.85
76404;BME280;65232;48.358;2.122;2023-05-07T00:50:37;100717.97;;;15.06;88.06
76404;BME280;65232;48.358;2.122;2023-05-07T00:51:03;100721.19;;;15.09;87.68
76404;BME280;65232;48.358;2.122;2023-05-07T00:51:28;100717.81;;;15.07;87.53
76404;BME280;65232;48.358;2.122;2023-05-07T00:51:54;100715.28;;;15.06;87.49
76404;BME280;65232;48.358;2.122;2023-05-07T00:52:20;100713.03;;;15.01;87.48
76404;BME280;65232;48.358;2.122;2023-05-07T00:52:47;100714.88;;;15.01;87.18
76404;BME280;65232;48.358;2.122;2023-05-07T00:53:13;100716.59;;;15.02;87.65
76404;BME280;65232;48.358;2.122;2023-05-07T00:53:39;100714.19;;;14.99;87.49
76404;BME280;65232;48.358;2.122;2023-05-07T00:54:04;100713.88;;;15.02;87.69
76404;BME280;65232;48.358;2.122;2023-05-07T00:54:30;100716.53;;;14.94;87.27
76404;BME280;65232;48.358;2.122;2023-05-07T00:54:56;100705.75;;;14.94;87.19
76404;BME280;65232;48.358;2.122;2023-05-07T00:55:23;100708.75;;;14.91;87.10
76404;BME280;65232;48.358;2.122;2023-05-07T00:55:49;100710.75;;;14.89;87.25
76404;BME280;65232;48.358;2.122;2023-05-07T00:56:14;100707.38;;;14.87;87.06
76404;BME280;65232;48.358;2.122;2023-05-07T00:56:40;100710.06;;;14.87;87.46
76404;BME280;65232;48.358;2.122;2023-05-07T00:57:06;100708.72;;;14.82;87.53
76404;BME280;65232;48.358;2.122;2023-05-07T00:57:39;100710.06;;;14.87;87.63
76404;BME280;65232;48.358;2.122;2023-05-07T00:58:06;100707.88;;;14.82;88.03
76404;BME280;65232;48.358;2.122;2023-05-07T00:58:32;100709.22;;;14.86;87.52
76404;BME280;65232;48.358;2.122;2023-05-07T00:58:58;100708.75;;;14.91;87.82
76404;BME280;65232;48.358;2.122;2023-05-07T00:59:24;100708.75;;;14.91;88.74
76404;BME280;65232;48.358;2.122;2023-05-07T00:59:51;100712.31;;;14.91;88.60
76404;BME280;65232;48.358;2.122;2023-05-07T01:00:17;100704.53;;;14.88;88.85
76404;BME280;65232;48.358;2.122;2023-05-07T01:00:43;100706.75;;;14.93;89.50
76404;BME280;65232;48.358;2.122;2023-05-07T01:01:08;100718.38;;;14.93;89.19
76404;BME280;65232;48.358;2.122;2023-05-07T01:01:34;100708.06;;;14.89;88.48
76404;BME280;65232;48.358;2.122;2023-05-07T01:02:00;100710.75;;;14.89;88.65
76404;BME280;65232;48.358;2.122;2023-05-07T01:02:25;100708.91;;;14.89;88.17
76404;BME280;65232;48.358;2.122;2023-05-07T01:02:51;100712.47;;;14.90;88.16
76404;BME280;65232;48.358;2.122;2023-05-07T01:03:17;100711.47;;;14.91;88.53
76404;BME280;65232;48.358;2.122;2023-05-07T01:03:43;100707.75;;;14.92;88.43
76404;BME280;65232;48.358;2.122;2023-05-07T01:04:08;100712.84;;;14.95;89.04
76404;BME280;65232;48.358;2.122;2023-05-07T01:04:34;100719.94;;;14.96;89.06
76404;BME280;65232;48.358;2.122;2023-05-07T01:05:00;100712.84;;;14.95;90.08
76404;BME280;65232;48.358;2.122;2023-05-07T01:05:25;100713.53;;;14.97;89.62
76404;BME280;65232;48.358;2.122;2023-05-07T01:05:53;100720.44;;;14.99;89.57
76404;BME280;65232;48.358;2.122;2023-05-07T01:06:21;100713.03;;;15.01;89.22
76404;BME280;65232;48.358;2.122;2023-05-07T01:06:50;100720.44;;;14.99;89.49
76404;BME280;65232;48.358;2.122;2023-05-07T01:07:15;100719.09;;;14.95;89.48
76404;BME280;65232;48.358;2.122;2023-05-07T01:07:42;100723.78;;;14.93;89.91
76404;BME280;65232;48.358;2.122;2023-05-07T01:08:07;100732.56;;;14.95;89.80
76404;BME280;65232;48.358;2.122;2023-05-07T01:08:33;100728.00;;;14.96;90.23
76404;BME280;65232;48.358;2.122;2023-05-07T01:09:00;100722.94;;;14.93;89.97
76404;BME280;65232;48.358;2.122;2023-05-07T01:09:26;100732.84;;;14.92;90.62
76404;BME280;65232;48.358;2.122;2023-05-07T01:09:53;100728.94;;;14.87;90.79
76404;BME280;65232;48.358;2.122;2023-05-07T01:10:18;100729.31;;;14.92;90.84
76404;BME280;65232;48.358;2.122;2023-05-07T01:10:44;100724.09;;;14.90;90.64
76404;BME280;65232;48.358;2.122;2023-05-07T01:11:10;100729.31;;;14.92;90.67
76404;BME280;65232;48.358;2.122;2023-05-07T01:11:36;100729.31;;;14.92;90.24
76404;BME280;65232;48.358;2.122;2023-05-07T01:12:03;100729.00;;;14.95;90.27
76404;BME280;65232;48.358;2.122;2023-05-07T01:12:29;100731.31;;;14.90;90.09
76404;BME280;65232;48.358;2.122;2023-05-07T01:12:57;100725.09;;;14.89;90.50
76404;BME280;65232;48.358;2.122;2023-05-07T01:13:24;100727.94;;;14.88;91.04
76404;BME280;65232;48.358;2.122;2023-05-07T01:13:50;100731.63;;;14.87;90.74
76404;BME280;65232;48.358;2.122;2023-05-07T01:14:16;100730.78;;;14.86;90.78
76404;BME280;65232;48.358;2.122;2023-05-07T01:14:42;100730.78;;;14.86;90.69
76404;BME280;65232;48.358;2.122;2023-05-07T01:15:08;100728.94;;;14.87;90.48
76404;BME280;65232;48.358;2.122;2023-05-07T01:15:34;100736.72;;;14.90;90.38
76404;BME280;65232;48.358;2.122;2023-05-07T01:15:59;100734.00;;;14.90;90.25
76404;BME280;65232;48.358;2.122;2023-05-07T01:16:25;100731.00;;;14.93;90.19
76404;BME280;65232;48.358;2.122;2023-05-07T01:16:51;100732.00;;;14.92;90.29
76404;BME280;65232;48.358;2.122;2023-05-07T01:17:18;100726.63;;;14.92;90.21
76404;BME280;65232;48.358;2.122;2023-05-07T01:17:45;100735.72;;;14.91;90.41
76404;BME280;65232;48.358;2.122;2023-05-07T01:18:17;100729.31;;;14.92;90.57
76404;BME280;65232;48.358;2.122;2023-05-07T01:18:42;100732.00;;;14.92;90.48
76404;BME280;65232;48.358;2.122;2023-05-07T01:19:09;100727.63;;;14.91;90.43
76404;BME280;65232;48.358;2.122;2023-05-07T01:19:38;100730.78;;;14.86;90.43
76404;BME280;65232;48.358;2.122;2023-05-07T01:20:05;100732.16;;;14.90;90.42
76404;BME280;65232;48.358;2.122;2023-05-07T01:20:31;100733.00;;;14.91;89.98
76404;BME280;65232;48.358;2.122;2023-05-07T01:20:58;100730.16;;;14.92;90.28
76404;BME280;65232;48.358;2.122;2023-05-07T01:21:26;100730.47;;;14.89;90.48
76404;BME280;65232;48.358;2.122;2023-05-07T01:22:04;100727.16;;;14.95;90.43
76404;BME280;65232;48.358;2.122;2023-05-07T01:22:38;100727.00;;;14.97;90.26
76404;BME280;65232;48.358;2.122;2023-05-07T01:23:06;100717.94;;;14.98;90.40
76404;BME280;65232;48.358;2.122;2023-05-07T01:23:33;100717.06;;;14.97;90.69
76404;BME280;65232;48.358;2.122;2023-05-07T01:23:58;100718.38;;;14.93;90.29
76404;BME280;65232;48.358;2.122;2023-05-07T01:24:24;100724.63;;;14.94;90.27
76404;BME280;65232;48.358;2.122;2023-05-07T01:24:50;100719.22;;;14.94;90.75
76404;BME280;65232;48.358;2.122;2023-05-07T01:25:16;100714.38;;;14.97;91.19
76404;BME280;65232;48.358;2.122;2023-05-07T01:25:52;100714.72;;;15.02;90.92
76404;BME280;65232;48.358;2.122;2023-05-07T01:26:20;100708.16;;;14.97;91.21
76404;BME280;65232;48.358;2.122;2023-05-07T01:26:45;100713.53;;;14.97;90.93
76404;BME280;65232;48.358;2.122;2023-05-07T01:27:13;100710.00;;;14.96;90.80
76404;BME280;65232;48.358;2.122;2023-05-07T01:27:39;100710.84;;;14.97;90.44
76404;BME280;65232;48.358;2.122;2023-05-07T01:28:04;100708.16;;;14.97;90.16
76404;BME280;65232;48.358;2.122;2023-05-07T01:28:33;100707.16;;;14.98;90.23
76404;BME280;65232;48.358;2.122;2023-05-07T01:28:59;100706.59;;;14.94;90.01
76404;BME280;65232;48.358;2.122;2023-05-07T01:29:25;100704.06;;;14.93;90.02
76404;BME280;65232;48.358;2.122;2023-05-07T01:29:51;100703.06;;;14.94;90.07
76404;BME280;65232;48.358;2.122;2023-05-07T01:30:16;100702.91;;;14.95;89.80
76404;BME280;65232;48.358;2.122;2023-05-07T01:30:47;100704.38;;;14.90;89.50
76404;BME280;65232;48.358;2.122;2023-05-07T01:31:16;100710.91;;;14.87;89.30
76404;BME280;65232;48.358;2.122;2023-05-07T01:31:43;100699.97;;;14.89;89.68
76404;BME280;65232;48.358;2.122;2023-05-07T01:32:09;100700.53;;;14.92;89.80
76404;BME280;65232;48.358;2.122;2023-05-07T01:33:07;100699.38;;;14.95;89.73
76404;BME280;65232;48.358;2.122;2023-05-07T01:33:35;100696.69;;;14.95;89.85
76404;BME280;65232;48.358;2.122;2023-05-07T01:34:03;100701.53;;;14.91;89.95
76404;BME280;65232;48.358;2.122;2023-05-07T01:34:32;100695.81;;;14.94;90.01
76404;BME280;65232;48.358;2.122;2023-05-07T01:34:59;100704.59;;;14.96;89.72
76404;BME280;65232;48.358;2.122;2023-05-07T01:35:33;100696.28;;;14.90;90.28
76404;BME280;65232;48.358;2.122;2023-05-07T01:36:00;100701.22;;;14.94;90.08
76404;BME280;65232;48.358;2.122;2023-05-07T01:36:29;100704.75;;;14.95;89.74
76404;BME280;65232;48.358;2.122;2023-05-07T01:36:56;100702.53;;;14.90;89.62
76404;BME280;65232;48.358;2.122;2023-05-07T01:37:23;100701.38;;;14.93;89.59
76404;BME280;65232;48.358;2.122;2023-05-07T01:37:50;100700.38;;;14.94;89.16
76404;BME280;65232;48.358;2.122;2023-05-07T01:38:16;100698.38;;;14.96;89.03
76404;BME280;65232;48.358;2.122;2023-05-07T01:38:41;100701.75;;;14.98;88.92
76404;BME280;65232;48.358;2.122;2023-05-07T01:39:08;100696.88;;;15.01;89.48
76404;BME280;65232;48.358;2.122;2023-05-07T01:39:37;100692.63;;;14.99;89.48
76404;BME280;65232;48.358;2.122;2023-05-07T01:40:04;100698.88;;;14.99;89.79
76404;BME280;65232;48.358;2.122;2023-05-07T01:40:30;100687.16;;;15.08;89.54
76404;BME280;65232;48.358;2.122;2023-05-07T01:40:56;100690.00;;;15.07;88.79
76404;BME280;65232;48.358;2.122;2023-05-07T01:41:22;100696.09;;;15.09;89.32
76404;BME280;65232;48.358;2.122;2023-05-07T01:41:47;100691.41;;;15.11;89.00
76404;BME280;65232;48.358;2.122;2023-05-07T01:42:13;100695.88;;;15.02;88.87
76404;BME280;65232;48.358;2.122;2023-05-07T01:42:38;100690.63;;;15.01;89.23
76404;BME280;65232;48.358;2.122;2023-05-07T01:43:05;100697.72;;;15.02;89.42
76404;BME280;65232;48.358;2.122;2023-05-07T01:43:33;100693.00;;;15.04;88.59
76404;BME280;65232;48.358;2.122;2023-05-07T01:43:59;100691.31;;;15.03;88.55
76404;BME280;65232;48.358;2.122;2023-05-07T01:44:24;100692.31;;;15.02;88.64
76404;BME280;65232;48.358;2.122;2023-05-07T01:44:51;100700.41;;;15.02;88.21
76404;BME280;65232;48.358;2.122;2023-05-07T01:45:16;100692.03;;;15.05;88.37
76404;BME280;65232;48.358;2.122;2023-05-07T01:45:42;100697.72;;;15.02;87.65
76404;BME280;65232;48.358;2.122;2023-05-07T01:46:10;100698.72;;;15.01;87.58
76404;BME280;65232;48.358;2.122;2023-05-07T01:46:35;100703.66;;;15.05;87.69
76404;BME280;65232;48.358;2.122;2023-05-07T01:47:01;100694.41;;;15.08;87.73
76404;BME280;65232;48.358;2.122;2023-05-07T01:47:29;100692.25;;;15.11;87.87
76404;BME280;65232;48.358;2.122;2023-05-07T01:47:55;100694.09;;;15.11;87.92
76404;BME280;65232;48.358;2.122;2023-05-07T01:48:21;100693.56;;;15.07;87.63
76404;BME280;65232;48.358;2.122;2023-05-07T01:48:47;100698.13;;;15.15;87.74
76404;BME280;65232;48.358;2.122;2023-05-07T01:49:13;100695.28;;;15.16;87.23
76404;BME280;65232;48.358;2.122;2023-05-07T01:49:39;100693.09;;;15.12;87.42
76404;BME280;65232;48.358;2.122;2023-05-07T01:50:05;100693.94;;;15.12;88.04
76404;BME280;65232;48.358;2.122;2023-05-07T01:50:32;100694.59;;;15.14;88.22
76404;BME280;65232;48.358;2.122;2023-05-07T01:50:58;100693.25;;;15.10;88.25
76404;BME280;65232;48.358;2.122;2023-05-07T01:51:23;100697.09;;;15.08;88.27
76404;BME280;65232;48.358;2.122;2023-05-07T01:51:49;100705.66;;;15.03;88.56
76404;BME280;65232;48.358;2.122;2023-05-07T01:52:15;100693.19;;;15.02;88.29
76404;BME280;65232;48.358;2.122;2023-05-07T01:52:41;100701.09;;;15.04;88.87
76404;BME280;65232;48.358;2.122;2023-05-07T01:53:06;100697.09;;;15.08;88.81
76404;BME280;65232;48.358;2.122;2023-05-07T01:53:38;100709.34;;;15.02;88.24
76404;BME280;65232;48.358;2.122;2023-05-07T01:54:04;100697.41;;;15.05;88.15
76404;BME280;65232;48.358;2.122;2023-05-07T01:54:30;100707.19;;;15.06;87.84
76404;BME280;65232;48.358;2.122;2023-05-07T01:54:57;100700.09;;;15.05;87.92
76404;BME280;65232;48.358;2.122;2023-05-07T01:55:22;100702.09;;;15.03;88.11
76404;BME280;65232;48.358;2.122;2023-05-07T01:55:48;100704.09;;;15.01;88.24
76404;BME280;65232;48.358;2.122;2023-05-07T01:56:15;100708.34;;;15.03;88.95
76404;BME280;65232;48.358;2.122;2023-05-07T01:56:41;100709.19;;;15.04;88.96
76404;BME280;65232;48.358;2.122;2023-05-07T01:57:06;100711.34;;;15.00;88.73
76404;BME280;65232;48.358;2.122;2023-05-07T01:57:32;100706.06;;;14.91;88.18
76404;BME280;65232;48.358;2.122;2023-05-07T01:57:58;100704.19;;;14.83;88.08
76404;BME280;65232;48.358;2.122;2023-05-07T01:58:23;100708.06;;;14.89;88.42
76404;BME280;65232;48.358;2.122;2023-05-07T01:58:49;100706.91;;;14.91;88.35
76404;BME280;65232;48.358;2.122;2023-05-07T01:59:16;100699.69;;;14.92;88.28
76404;BME280;65232;48.358;2.122;2023-05-07T01:59:41;100716.38;;;14.95;88.37
76404;BME280;65232;48.358;2.122;2023-05-07T02:00:07;100706.28;;;14.97;88.71
76404;BME280;65232;48.358;2.122;2023-05-07T02:00:40;100709.16;;;14.96;88.64
76404;BME280;65232;48.358;2.122;2023-05-07T02:01:07;100704.59;;;14.96;88.49
76404;BME280;65232;48.358;2.122;2023-05-07T02:01:32;100705.44;;;14.97;88.44
76404;BME280;65232;48.358;2.122;2023-05-07T02:01:58;100710.50;;;15.00;88.42
76404;BME280;65232;48.358;2.122;2023-05-07T02:02:24;100710.50;;;15.00;88.50
76404;BME280;65232;48.358;2.122;2023-05-07T02:02:50;100705.97;;;15.00;88.38
76404;BME280;65232;48.358;2.122;2023-05-07T02:03:34;100712.69;;;14.96;88.55
76404;BME280;65232;48.358;2.122;2023-05-07T02:04:07;100714.31;;;14.89;89.29
76404;BME280;65232;48.358;2.122;2023-05-07T02:04:32;100709.75;;;14.90;89.34
76404;BME280;65232;48.358;2.122;2023-05-07T02:04:59;100703.69;;;14.88;89.51
76404;BME280;65232;48.358;2.122;2023-05-07T02:05:24;100711.31;;;14.92;89.69
76404;BME280;65232;48.358;2.122;2023-05-07T02:05:57;100705.75;;;14.94;89.92
76404;BME280;65232;48.358;2.122;2023-05-07T02:06:37;100706.59;;;14.94;89.45
76404;BME280;65232;48.358;2.122;2023-05-07T02:07:04;100707.59;;;14.93;89.48
76404;BME280;65232;48.358;2.122;2023-05-07T02:07:30;100715.88;;;15.00;89.32
76404;BME280;65232;48.358;2.122;2023-05-07T02:07:55;100714.19;;;14.99;89.18
76404;BME280;65232;48.358;2.122;2023-05-07T02:08:21;100715.88;;;15.00;89.31
76404;BME280;65232;48.358;2.122;2023-05-07T02:08:47;100713.53;;;14.97;89.67
76404;BME280;65232;48.358;2.122;2023-05-07T02:09:13;100712.19;;;15.01;89.57
76404;BME280;65232;48.358;2.122;2023-05-07T02:09:41;100717.59;;;15.01;89.37
76404;BME280;65232;48.358;2.122;2023-05-07T02:10:07;100715.03;;;14.99;89.54
76404;BME280;65232;48.358;2.122;2023-05-07T02:10:33;100714.53;;;14.96;89.74
76404;BME280;65232;48.358;2.122;2023-05-07T02:10:59;100716.53;;;14.94;89.77
76404;BME280;65232;48.358;2.122;2023-05-07T02:11:24;100717.22;;;14.96;89.86
76404;BME280;65232;48.358;2.122;2023-05-07T02:11:50;100721.94;;;14.94;89.48
76404;BME280;65232;48.358;2.122;2023-05-07T02:12:17;100713.00;;;14.93;88.90
76404;BME280;65232;48.358;2.122;2023-05-07T02:12:43;100721.78;;;14.95;88.99
76404;BME280;65232;48.358;2.122;2023-05-07T02:13:08;100720.22;;;14.93;89.31
76404;BME280;65232;48.358;2.122;2023-05-07T02:13:34;100723.78;;;14.93;89.45
76404;BME280;65232;48.358;2.122;2023-05-07T02:14:00;100718.69;;;14.90;89.46
76404;BME280;65232;48.358;2.122;2023-05-07T02:14:25;100722.63;;;14.96;89.65
76404;BME280;65232;48.358;2.122;2023-05-07T02:14:51;100727.16;;;14.95;89.56
76404;BME280;65232;48.358;2.122;2023-05-07T02:15:16;100725.66;;;15.01;89.46
76404;BME280;65232;48.358;2.122;2023-05-07T02:15:42;100725.81;;;14.99;89.61
76404;BME280;65232;48.358;2.122;2023-05-07T02:16:07;100729.00;;;14.95;89.88
76404;BME280;65232;48.358;2.122;2023-05-07T02:16:33;100735.75;;;14.99;89.75
76404;BME280;65232;48.358;2.122;2023-05-07T02:16:58;100726.16;;;14.96;89.71
76404;BME280;65232;48.358;2.122;2023-05-07T02:17:24;100729.06;;;15.03;89.34
76404;BME280;65232;48.358;2.122;2023-05-07T02:18:05;100729.00;;;14.95;90.27
76404;BME280;65232;48.358;2.122;2023-05-07T02:18:31;100733.56;;;14.94;90.27
76404;BME280;65232;48.358;2.122;2023-05-07T02:18:57;100726.47;;;14.93;90.19